Time;durP1;ratioP1;P1;durP2;ratioP2;P2;SDS_P1;SDS_P2;PMS_P1;PMS_P2;Temp;Humidity;BMP_temperature;BMP_pressure;BME280_temperature;BME280_humidity;BME280_pressure;Samples;Min_cycle;Max_cycle;Signal;HPM_P1;HPM_P2
2023/08/24 00:00:32;;;;;;;13.10;9.60;;;;;;;19.01;61.46;100648.83;110964;1262;23586;-81
2023/08/24 00:03:24;;;;;;;15.70;9.10;;;;;;;18.99;61.42;100647.38;108338;1262;3139573;-81
2023/08/24 00:06:06;;;;;;;14.20;10.30;;;;;;;18.96;61.46;100641.25;110107;1268;21981;-82
2023/08/24 00:08:37;;;;;;;15.40;10.20;;;;;;;19.02;61.54;100648.73;109844;1268;21974;-81
2023/08/24 00:11:07;;;;;;;12.00;9.40;;;;;;;19.06;61.52;100647.79;110712;1264;21987;-81
2023/08/24 00:13:48;;;;;;;14.80;9.00;;;;;;;19.09;61.43;100650.42;110767;1263;21967;-80
2023/08/24 00:16:20;;;;;;;12.80;9.00;;;;;;;19.11;61.40;100650.41;110784;1263;22001;-80
2023/08/24 00:18:59;;;;;;;13.10;9.20;;;;;;;19.12;61.09;100652.15;109968;1269;21981;-82
2023/08/24 00:21:41;;;;;;;13.80;9.40;;;;;;;19.09;61.16;100650.89;109515;1268;22465;-82
2023/08/24 00:24:23;;;;;;;13.10;10.20;;;;;;;19.06;61.10;100650.60;110009;1268;21812;-82
2023/08/24 00:27:18;;;;;;;15.40;10.70;;;;;;;19.00;61.06;100653.65;110217;1255;21972;-82
2023/08/24 00:30:06;;;;;;;12.20;9.30;;;;;;;18.98;61.16;100652.20;110306;1268;21981;-83
2023/08/24 00:32:50;;;;;;;10.90;9.70;;;;;;;18.92;61.08;100653.33;109747;1273;22002;-83
2023/08/24 00:35:20;;;;;;;12.90;9.10;;;;;;;18.87;61.11;100656.14;109632;1273;23589;-82
2023/08/24 00:37:58;;;;;;;12.80;9.60;;;;;;;18.81;61.14;100657.02;110097;1267;21982;-81
2023/08/24 00:40:32;;;;;;;12.30;8.90;;;;;;;18.75;61.29;100656.20;110625;1262;22196;-82
2023/08/24 00:43:10;;;;;;;17.10;10.20;;;;;;;18.67;61.44;100658.27;110804;1262;23706;-81
2023/08/24 00:45:51;;;;;;;10.60;9.40;;;;;;;18.61;61.71;100658.37;110673;1259;22035;-83
2023/08/24 00:48:28;;;;;;;11.00;9.00;;;;;;;18.57;61.99;100657.40;110524;1262;21980;-81
2023/08/24 00:51:09;;;;;;;13.30;10.50;;;;;;;18.52;62.04;100652.95;110866;1261;21966;-81
2023/08/24 00:53:43;;;;;;;13.20;9.70;;;;;;;18.47;62.28;100653.46;110940;1261;22061;-82
2023/08/24 00:56:14;;;;;;;13.70;10.20;;;;;;;18.45;62.41;100653.77;111011;1261;21982;-82
2023/08/24 00:58:48;;;;;;;15.40;10.10;;;;;;;18.44;62.54;100653.46;111453;1255;21978;-82
2023/08/24 01:01:28;;;;;;;13.60;10.00;;;;;;;18.42;62.67;100654.52;111045;1260;22033;-81
2023/08/24 01:04:03;;;;;;;12.60;10.20;;;;;;;18.38;62.58;100653.52;111060;1259;21969;-81
2023/08/24 01:06:46;;;;;;;10.70;9.60;;;;;;;18.34;62.72;100654.33;110192;1264;22750;-85
2023/08/24 01:09:25;;;;;;;13.70;9.10;;;;;;;18.29;62.93;100655.48;110814;1263;21960;-83
2023/08/24 01:12:47;;;;;;;13.10;9.80;;;;;;;18.29;63.04;100658.19;110632;1264;24284;-82
2023/08/24 01:15:54;;;;;;;13.60;9.70;;;;;;;18.28;63.29;100653.13;110809;1264;21982;-81
2023/08/24 01:18:28;;;;;;;18.40;8.80;;;;;;;18.29;63.39;100655.70;110029;1270;21987;-81
2023/08/24 01:21:05;;;;;;;13.10;9.00;;;;;;;18.31;63.32;100654.52;110461;1266;23698;-80
2023/08/24 01:24:11;;;;;;;14.30;8.80;;;;;;;18.33;63.19;100652.48;109730;1271;21978;-81
2023/08/24 01:26:51;;;;;;;;;;;;;;;18.31;63.39;100650.11;110642;1266;21964;-82
2023/08/24 01:29:29;;;;;;;12.50;9.80;;;;;;;18.21;63.50;100648.42;110429;1266;21991;-79
2023/08/24 01:32:02;;;;;;;9.90;8.80;;;;;;;18.21;63.49;100647.05;109574;1265;22231;-80
2023/08/24 01:34:37;;;;;;;13.10;9.60;;;;;;;18.19;63.48;100646.83;109758;1272;22008;-80
2023/08/24 01:37:14;;;;;;;14.60;9.60;;;;;;;18.18;63.54;100644.63;109747;1266;21977;-81
2023/08/24 01:40:00;;;;;;;14.60;10.50;;;;;;;18.17;63.49;100643.11;110580;1266;23053;-80
2023/08/24 01:42:49;;;;;;;11.10;8.90;;;;;;;18.13;63.63;100640.34;110604;1260;22001;-82
2023/08/24 01:45:31;;;;;;;11.50;10.10;;;;;;;18.08;63.56;100635.70;110735;1260;21990;-84
2023/08/24 01:48:08;;;;;;;12.10;9.20;;;;;;;18.06;63.64;100635.51;111014;1260;21991;-79
2023/08/24 01:50:44;;;;;;;13.70;9.20;;;;;;;18.04;63.68;100637.60;110247;1261;23605;-80
2023/08/24 01:53:37;;;;;;;12.50;9.10;;;;;;;17.99;63.65;100631.39;109936;1268;21984;-81
2023/08/24 01:56:18;;;;;;;15.20;9.60;;;;;;;17.92;63.96;100629.55;110103;1268;21975;-81
2023/08/24 01:58:51;;;;;;;14.00;10.00;;;;;;;17.87;63.79;100630.20;109556;1274;22129;-81
2023/08/24 02:01:25;;;;;;;16.00;9.50;;;;;;;17.77;63.70;100630.14;109148;1274;22343;-80
2023/08/24 02:04:04;;;;;;;12.70;9.60;;;;;;;17.66;63.89;100631.48;109212;1277;22600;-82
2023/08/24 02:06:38;;;;;;;10.80;9.70;;;;;;;17.57;64.26;100632.59;108903;1281;23712;-84
2023/08/24 02:09:09;;;;;;;13.90;8.60;;;;;;;17.53;64.71;100633.39;108925;1278;23046;-81
2023/08/24 02:11:39;;;;;;;12.90;9.30;;;;;;;17.53;65.12;100635.15;109109;1280;21989;-81
2023/08/24 02:14:12;;;;;;;11.80;9.30;;;;;;;17.55;65.35;100638.35;108544;1286;21995;-81
2023/08/24 02:16:42;;;;;;;14.30;9.90;;;;;;;17.54;65.22;100637.69;108530;1279;22342;-81
2023/08/24 02:19:16;;;;;;;13.80;9.90;;;;;;;17.51;65.19;100637.37;108891;1281;22062;-82
2023/08/24 02:21:50;;;;;;;14.90;10.50;;;;;;;17.48;65.32;100640.75;108618;1285;23743;-81
2023/08/24 02:24:20;;;;;;;12.70;9.30;;;;;;;17.45;65.55;100652.33;108754;1281;22698;-80
2023/08/24 02:26:52;;;;;;;15.90;9.70;;;;;;;17.46;65.68;100657.75;108811;1281;22223;-80
2023/08/24 02:29:28;;;;;;;11.00;9.90;;;;;;;17.46;65.86;100658.25;108990;1278;22002;-81
2023/08/24 02:32:01;;;;;;;12.80;9.30;;;;;;;17.48;65.94;100660.10;109323;1272;23065;-80
2023/08/24 02:34:54;;;;;;;15.10;9.10;;;;;;;17.48;65.76;100651.79;108998;1277;23826;-80
2023/08/24 02:37:27;;;;;;;10.70;8.50;;;;;;;17.47;65.89;100646.90;109437;1271;21978;-82
2023/08/24 02:40:08;;;;;;;12.70;9.00;;;;;;;17.49;66.13;100646.11;110465;1260;21974;-81
2023/08/24 02:42:42;;;;;;;15.00;9.70;;;;;;;17.50;66.21;100645.70;110978;1260;21970;-83
2023/08/24 02:45:25;;;;;;;28.00;11.20;;;;;;;17.51;66.10;100641.60;111018;1260;21951;-79
2023/08/24 02:47:59;;;;;;;13.40;9.10;;;;;;;17.48;65.96;100645.97;110461;1267;22727;-81
2023/08/24 02:50:34;;;;;;;13.40;9.10;;;;;;;17.42;65.93;100643.38;110346;1258;22040;-80
2023/08/24 02:53:14;;;;;;;;;;;;;;;17.39;66.24;100638.83;109975;1265;21959;-80
2023/08/24 02:55:52;;;;;;;11.50;9.90;;;;;;;17.28;66.72;100637.88;110269;1268;23612;-83
2023/08/24 02:58:31;;;;;;;12.10;9.70;;;;;;;17.29;66.60;100639.25;110319;1268;21992;-81
2023/08/24 03:01:12;;;;;;;12.80;9.70;;;;;;;17.29;66.68;100641.73;109620;1273;21965;-81
2023/08/24 03:03:44;;;;;;;14.70;9.70;;;;;;;17.24;66.46;100641.49;109200;1278;22441;-81
2023/08/24 03:06:23;;;;;;;13.40;9.60;;;;;;;17.18;66.47;100641.88;109304;1273;21973;-82
2023/08/24 03:08:57;;;;;;;14.70;10.60;;;;;;;17.10;66.51;100639.34;109446;1273;23686;-82
2023/08/24 03:11:41;;;;;;;20.20;11.80;;;;;;;17.03;66.70;100638.17;109652;1268;21981;-82
2023/08/24 03:14:18;;;;;;;15.80;11.50;;;;;;;16.97;66.93;100635.92;110075;1268;21991;-81
2023/08/24 03:16:53;;;;;;;14.00;11.00;;;;;;;16.92;66.96;100634.98;109524;1272;22623;-82
2023/08/24 03:19:31;;;;;;;15.50;10.40;;;;;;;16.88;67.12;100632.40;109876;1268;21998;-82
2023/08/24 03:22:12;;;;;;;12.20;9.30;;;;;;;16.86;67.30;100631.10;110223;1261;21954;-81
2023/08/24 03:24:49;;;;;;;10.90;9.80;;;;;;;16.84;67.40;100625.12;111077;1249;22008;-81
2023/08/24 03:27:26;;;;;;;15.50;10.90;;;;;;;16.81;67.43;100622.09;110729;1261;23704;-80
2023/08/24 03:30:05;;;;;;;12.70;9.60;;;;;;;16.76;67.45;100621.82;110869;1261;22060;-82
2023/08/24 03:32:41;;;;;;;17.30;15.10;;;;;;;16.75;67.56;100626.48;110861;1261;22325;-81
2023/08/24 03:35:26;;;;;;;14.80;10.90;;;;;;;16.75;67.70;100628.38;110985;1255;22186;-81
2023/08/24 03:38:03;;;;;;;16.70;9.90;;;;;;;16.75;67.71;100626.63;111240;1255;22553;-80
2023/08/24 03:41:05;;;;;;;20.20;10.50;;;;;;;16.74;67.58;100621.73;111428;1255;23091;-80
2023/08/24 03:43:41;;;;;;;14.80;9.50;;;;;;;16.70;67.62;100623.09;111425;1255;22779;-82
2023/08/24 03:46:17;;;;;;;11.60;9.30;;;;;;;16.69;67.63;100620.48;110925;1260;23018;-81
2023/08/24 03:48:59;;;;;;;11.20;10.10;;;;;;;16.69;67.60;100621.21;111001;1260;21980;-81
2023/08/24 03:51:31;;;;;;;12.40;9.80;;;;;;;16.68;67.52;100621.93;110560;1266;21987;-81
2023/08/24 03:54:06;;;;;;;15.90;10.00;;;;;;;16.67;67.51;100620.46;110527;1265;23626;-81
2023/08/24 03:56:41;;;;;;;12.50;9.40;;;;;;;16.64;67.36;100622.71;110429;1265;21978;-80
2023/08/24 03:59:20;;;;;;;12.10;8.90;;;;;;;16.63;67.55;100624.18;110682;1265;23767;-81
2023/08/24 04:02:02;;;;;;;13.50;9.90;;;;;;;16.66;67.53;100625.44;110624;1265;21986;-81
2023/08/24 04:04:35;;;;;;;10.80;9.40;;;;;;;16.70;67.55;100629.74;110424;1265;23722;-81
2023/08/24 04:07:10;;;;;;;10.90;8.80;;;;;;;16.75;67.32;100631.20;110649;1265;23753;-80
2023/08/24 04:09:43;;;;;;;16.40;10.10;;;;;;;16.79;67.34;100633.27;110489;1265;22952;-81
2023/08/24 04:12:19;;;;;;;12.00;10.40;;;;;;;16.86;67.43;100634.13;110936;1260;21988;-81
2023/08/24 04:14:56;;;;;;;15.00;10.00;;;;;;;16.91;67.38;100627.66;111008;1260;21973;-82
2023/08/24 04:17:37;;;;;;;12.00;8.80;;;;;;;16.91;67.06;100628.86;111279;1254;22727;-80
2023/08/24 04:20:13;;;;;;;12.80;10.80;;;;;;;16.91;66.94;100627.98;111440;1254;21965;-81
2023/08/24 04:22:56;;;;;;;14.00;11.50;;;;;;;16.93;67.01;100627.51;111168;1259;21977;-82
2023/08/24 04:25:34;;;;;;;13.30;10.50;;;;;;;16.97;67.04;100629.25;111138;1259;23692;-81
2023/08/24 04:28:11;;;;;;;15.80;9.10;;;;;;;17.01;67.22;100629.91;111062;1259;24368;-81
2023/08/24 04:31:01;;;;;;;15.80;11.00;;;;;;;17.06;67.22;100633.96;111058;1258;22049;-79
2023/08/24 04:33:36;;;;;;;15.00;10.20;;;;;;;17.11;67.09;100635.41;111045;1259;22615;-80
2023/08/24 04:36:10;;;;;;;11.90;9.50;;;;;;;17.16;66.87;100640.06;111070;1258;21970;-80
2023/08/24 04:38:52;;;;;;;16.30;10.50;;;;;;;17.16;66.84;100634.77;110508;1264;21938;-81
2023/08/24 04:41:39;;;;;;;28.40;11.80;;;;;;;17.21;66.81;100634.49;110997;1260;21984;-82
2023/08/24 04:44:17;;;;;;;23.60;13.10;;;;;;;17.31;66.82;100644.40;110831;1265;21936;-80
2023/08/24 04:46:50;;;;;;;17.80;12.50;;;;;;;17.37;66.83;100642.30;110853;1265;23625;-81
2023/08/24 04:49:30;;;;;;;26.10;13.50;;;;;;;17.43;66.76;100645.41;110253;1262;22037;-82
2023/08/24 04:52:12;;;;;;;29.60;14.40;;;;;;;17.50;66.62;100643.25;110443;1265;21979;-79
2023/08/24 04:54:44;;;;;;;24.60;14.00;;;;;;;17.58;66.67;100644.34;109837;1270;23638;-83
2023/08/24 04:57:14;;;;;;;28.90;15.00;;;;;;;17.60;66.52;100635.77;110074;1264;21957;-81
2023/08/24 04:59:54;;;;;;;28.30;13.50;;;;;;;17.72;66.61;100641.13;110522;1264;24299;-76
2023/08/24 05:02:30;;;;;;;20.20;14.60;;;;;;;17.80;66.49;100640.45;110710;1259;23102;-79
2023/08/24 05:05:06;;;;;;;17.60;12.90;;;;;;;17.90;66.34;100637.75;110697;1259;21966;-79
2023/08/24 05:07:54;;;;;;;19.50;12.70;;;;;;;17.99;66.43;100637.91;110634;1260;23745;-79
2023/08/24 05:10:58;;;;;;;20.80;14.10;;;;;;;18.07;66.19;100638.23;110803;1259;22854;-79
2023/08/24 05:13:35;;;;;;;54.70;16.10;;;;;;;18.16;66.17;100632.79;111051;1254;23040;-78
2023/08/24 05:16:43;;;;;;;24.30;12.50;;;;;;;18.26;66.08;100633.13;110792;1259;21971;-79
2023/08/24 05:19:26;;;;;;;16.30;9.30;;;;;;;18.39;65.82;100637.06;110819;1259;22009;-78
2023/08/24 05:22:08;;;;;;;15.10;8.30;;;;;;;18.49;65.36;100642.92;110688;1260;24112;-79
2023/08/24 05:25:09;;;;;;;11.90;7.80;;;;;;;18.58;64.72;100646.73;110663;1260;21967;-78
2023/08/24 05:27:53;;;;;;;9.60;7.40;;;;;;;18.67;64.26;100652.67;110223;1264;23109;-78
2023/08/24 05:30:35;;;;;;;12.50;7.80;;;;;;;18.77;63.76;100655.17;110323;1264;23401;-77
2023/08/24 05:33:16;;;;;;;12.90;8.20;;;;;;;18.87;63.19;100658.39;110062;1264;22446;-78
2023/08/24 05:35:57;;;;;;;10.20;8.60;;;;;;;18.97;62.89;100661.62;110655;1259;22001;-78
2023/08/24 05:38:58;;;;;;;12.80;7.90;;;;;;;19.10;62.66;100657.22;110743;1260;24284;-79
2023/08/24 05:41:54;;;;;;;10.10;8.10;;;;;;;19.24;62.25;100658.13;110781;1260;21970;-78
2023/08/24 05:44:28;;;;;;;11.30;8.20;;;;;;;19.39;61.74;100658.86;110941;1259;23079;-77
2023/08/24 05:47:04;;;;;;;13.20;8.00;;;;;;;19.54;61.41;100661.55;111092;1254;21961;-78
2023/08/24 05:49:40;;;;;;;15.40;8.60;;;;;;;19.69;61.08;100663.52;110534;1261;21948;-78
2023/08/24 05:52:19;;;;;;;9.60;7.80;;;;;;;19.89;61.21;100662.45;110639;1261;23700;-79
2023/08/24 05:54:58;;;;;;;10.80;7.30;;;;;;;20.10;60.61;100660.80;110159;1266;21977;-78
2023/08/24 05:57:36;;;;;;;9.00;6.90;;;;;;;20.30;60.28;100659.52;110312;1266;23631;-78
2023/08/24 06:00:35;;;;;;;17.90;7.60;;;;;;;20.49;59.59;100656.87;110079;1255;23027;-84
2023/08/24 06:04:26;;;;;;;;;;;;;;;;;;;;;
2023/08/24 06:07:49;;;;;;;11.30;6.90;;;;;;;20.96;58.77;100657.60;109795;1266;21986;-82
2023/08/24 06:11:02;;;;;;;30.40;7.80;;;;;;;21.32;58.80;100655.33;110496;1266;21985;-81
2023/08/24 06:13:47;;;;;;;12.60;8.00;;;;;;;21.69;58.04;100649.09;110711;1260;22124;-82
2023/08/24 06:20:36;;;;;;;9.20;7.20;;;;;;;22.33;56.40;100655.42;111129;1254;21951;-80
2023/08/24 06:23:57;;;;;;;7.70;5.90;;;;;;;22.71;55.89;100650.50;111454;1254;22832;-81
2023/08/24 06:27:28;;;;;;;11.20;6.70;;;;;;;23.30;55.81;100651.35;111185;1255;21981;-81
2023/08/24 06:30:12;;;;;;;11.60;5.70;;;;;;;23.91;54.09;100653.38;110572;1263;21987;-81
2023/08/24 06:32:53;;;;;;;11.30;6.50;;;;;;;24.26;52.45;100654.51;110667;1263;21978;-81
2023/08/24 06:36:31;;;;;;;14.60;6.10;;;;;;;24.58;51.93;100659.25;110695;1263;21969;-79
2023/08/24 06:39:41;;;;;;;9.00;6.00;;;;;;;25.00;50.27;100657.99;110511;1265;22059;-81
2023/08/24 06:43:22;;;;;;;9.20;6.30;;;;;;;25.28;49.82;100655.95;110387;1265;23631;-82
2023/08/24 06:46:22;;;;;;;12.70;6.20;;;;;;;25.66;49.93;100660.46;110400;1262;21965;-81
2023/08/24 06:49:07;;;;;;;18.90;6.40;;;;;;;26.12;48.44;100659.31;110610;1265;21970;-85
2023/08/24 06:51:57;;;;;;;18.40;6.50;;;;;;;26.27;46.89;100655.83;110629;1265;22006;-81
2023/08/24 06:54:34;;;;;;;10.50;5.40;;;;;;;26.21;46.12;100656.79;110441;1265;21961;-83
2023/08/24 06:57:13;;;;;;;16.90;5.50;;;;;;;26.16;46.55;100656.15;110504;1265;22100;-80
2023/08/24 07:00:00;;;;;;;10.40;5.40;;;;;;;26.23;46.86;100657.94;110698;1259;22024;-81
2023/08/24 07:02:52;;;;;;;16.80;6.50;;;;;;;26.33;46.49;100655.75;111035;1259;23036;-82
2023/08/24 07:05:31;;;;;;;18.90;6.40;;;;;;;26.52;46.46;100656.73;111032;1259;22161;-81
2023/08/24 07:08:26;;;;;;;8.20;5.50;;;;;;;26.83;46.59;100658.30;110958;1248;21963;-80
2023/08/24 07:11:14;;;;;;;10.10;5.10;;;;;;;27.18;46.34;100660.81;110943;1260;21968;-80
2023/08/24 07:14:01;;;;;;;8.90;4.60;;;;;;;27.56;45.30;100656.97;110191;1265;22038;-80
2023/08/24 07:16:47;;;;;;;11.80;5.20;;;;;;;27.92;44.53;100653.92;110304;1265;23634;-81
2023/08/24 07:19:28;;;;;;;11.10;5.10;;;;;;;28.33;43.80;100658.16;110066;1265;23607;-80
2023/08/24 07:22:26;;;;;;;12.70;5.00;;;;;;;28.67;42.52;100661.65;110107;1265;21953;-82
2023/08/24 07:25:05;;;;;;;13.00;6.70;;;;;;;28.90;41.42;100655.52;110331;1265;21969;-80
2023/08/24 07:27:54;;;;;;;8.70;5.00;;;;;;;29.08;41.18;100657.23;110485;1265;22056;-79
2023/08/24 07:30:30;;;;;;;28.30;6.60;;;;;;;29.23;40.96;100653.73;110243;1268;21976;-80
2023/08/24 07:33:32;;;;;;;6.10;4.40;;;;;;;29.33;41.07;100651.65;110438;1266;21991;-81
2023/08/24 07:36:19;;;;;;;8.00;5.00;;;;;;;29.44;40.68;100655.77;110333;1267;24287;-81
2023/08/24 07:39:00;;;;;;;8.10;4.30;;;;;;;29.43;40.27;100659.82;110076;1266;23054;-81
2023/08/24 07:41:41;;;;;;;13.30;4.40;;;;;;;29.55;40.90;100655.26;110307;1267;21971;-80
2023/08/24 07:44:29;;;;;;;7.90;5.40;;;;;;;29.75;40.00;100655.74;110463;1267;23017;-81
2023/08/24 07:47:11;;;;;;;;;;;;;;;29.83;39.90;100653.95;109855;1269;21963;-79
2023/08/24 07:49:56;;;;;;;7.00;3.70;;;;;;;29.89;39.75;100657.47;109729;1268;22006;-81
2023/08/24 07:52:42;;;;;;;8.90;3.50;;;;;;;30.03;39.49;100659.18;110117;1268;21969;-82
2023/08/24 07:55:17;;;;;;;8.90;3.40;;;;;;;30.15;38.91;100659.36;110090;1268;23606;-85
2023/08/24 07:57:53;;;;;;;6.70;3.20;;;;;;;30.30;38.42;100660.66;109828;1261;22070;-83
2023/08/24 08:00:38;;;;;;;8.70;3.50;;;;;;;30.35;38.44;100664.20;110317;1268;21825;-84
2023/08/24 08:03:30;;;;;;;10.70;3.60;;;;;;;30.45;38.11;100667.97;110319;1268;23608;-82
2023/08/24 08:06:16;;;;;;;8.60;3.30;;;;;;;30.53;37.47;100671.60;110553;1263;21971;-82
2023/08/24 08:08:56;;;;;;;5.60;2.40;;;;;;;30.59;37.62;100671.70;110717;1263;22607;-84
2023/08/24 08:11:51;;;;;;;8.00;3.40;;;;;;;30.70;37.08;100666.73;110711;1263;21981;-82
2023/08/24 08:14:26;;;;;;;7.80;2.70;;;;;;;30.79;36.91;100658.35;110294;1264;23031;-81
2023/08/24 08:17:03;;;;;;;5.70;2.90;;;;;;;30.86;36.33;100667.41;110679;1264;23796;-80
2023/08/24 08:19:48;;;;;;;11.70;3.70;;;;;;;30.90;35.94;100661.39;110606;1264;22780;-82
2023/08/24 08:22:21;;;;;;;7.10;2.10;;;;;;;30.99;35.59;100662.65;109865;1270;21959;-83
2023/08/24 08:24:54;;;;;;;10.70;2.80;;;;;;;31.11;35.49;100666.00;110066;1269;22345;-79
2023/08/24 08:27:51;;;;;;;6.40;3.30;;;;;;;31.12;34.83;100671.23;110100;1270;22009;-81
2023/08/24 08:30:29;;;;;;;4.90;2.10;;;;;;;31.15;35.12;100669.82;109823;1270;21957;-82
2023/08/24 08:33:21;;;;;;;5.60;1.50;;;;;;;31.33;34.78;100672.36;110462;1264;21970;-82
2023/08/24 08:36:09;;;;;;;6.50;1.90;;;;;;;31.44;33.65;100675.95;110857;1264;21985;-81
2023/08/24 08:39:03;;;;;;;5.90;1.80;;;;;;;31.48;33.40;100678.81;110689;1264;21937;-81
2023/08/24 08:41:45;;;;;;;7.70;2.30;;;;;;;31.58;33.05;100678.42;110434;1263;21968;-82
2023/08/24 08:44:24;;;;;;;5.50;2.00;;;;;;;31.57;32.44;100678.52;109985;1268;21981;-82
2023/08/24 08:46:58;;;;;;;14.80;2.60;;;;;;;31.53;32.90;100674.79;110139;1268;21975;-81
2023/08/24 08:49:35;;;;;;;10.10;2.40;;;;;;;31.58;32.84;100676.44;110297;1266;21999;-80
2023/08/24 08:52:18;;;;;;;5.40;2.10;;;;;;;31.58;32.40;100678.16;110354;1265;21991;-82
2023/08/24 08:54:49;;;;;;;12.40;2.30;;;;;;;31.51;32.79;100680.09;110238;1265;22063;-82
2023/08/24 08:57:23;;;;;;;6.80;1.80;;;;;;;31.60;32.70;100678.30;109547;1270;21995;-81
2023/08/24 08:59:57;;;;;;;6.60;2.10;;;;;;;31.66;32.12;100679.88;109817;1267;21996;-82
2023/08/24 09:02:42;;;;;;;11.00;3.10;;;;;;;31.53;32.05;100673.18;110474;1262;23039;-83
2023/08/24 09:05:33;;;;;;;7.60;2.40;;;;;;;31.45;32.96;100672.94;110820;1262;22166;-84
2023/08/24 09:08:09;;;;;;;7.80;1.90;;;;;;;31.42;32.90;100670.33;110879;1261;23730;-82
2023/08/24 09:10:59;;;;;;;13.70;2.70;;;;;;;31.30;32.47;100655.06;110699;1261;23071;-82
2023/08/24 09:13:43;;;;;;;4.40;1.60;;;;;;;31.32;32.35;100666.44;110823;1262;22039;-81
2023/08/24 09:16:20;;;;;;;4.20;1.70;;;;;;;31.27;31.99;100666.09;111285;1257;23609;-82
2023/08/24 09:19:14;;;;;;;8.40;2.40;;;;;;;31.28;32.01;100664.41;111245;1257;21957;-81
2023/08/24 09:21:56;;;;;;;5.20;1.90;;;;;;;31.31;31.79;100666.85;111425;1257;21933;-82
2023/08/24 09:24:43;;;;;;;5.60;1.60;;;;;;;31.25;31.85;100673.36;111225;1257;22003;-81
2023/08/24 09:27:31;;;;;;;9.60;2.00;;;;;;;31.22;32.36;100682.23;111108;1257;21982;-82
2023/08/24 09:30:14;;;;;;;8.70;1.80;;;;;;;31.28;32.46;100674.41;111214;1257;23137;-80
2023/08/24 09:32:50;;;;;;;7.20;1.80;;;;;;;31.32;32.15;100672.88;110216;1265;23034;-80
2023/08/24 09:35:52;;;;;;;6.90;1.80;;;;;;;31.17;31.82;100674.54;110172;1265;23013;-86
2023/08/24 09:38:43;;;;;;;;;;;;;;;;;;;;;
2023/08/24 09:41:53;;;;;;;5.50;1.60;;;;;;;30.98;32.23;100673.71;110293;1268;21997;-81
2023/08/24 09:44:37;;;;;;;5.20;1.60;;;;;;;30.84;32.15;100674.77;110550;1268;21977;-80
2023/08/24 09:47:11;;;;;;;15.30;2.70;;;;;;;30.68;32.53;100676.45;110357;1264;21974;-80
2023/08/24 09:49:48;;;;;;;11.20;2.10;;;;;;;30.69;32.93;100677.69;110214;1269;21974;-80
2023/08/24 09:52:26;;;;;;;6.50;1.70;;;;;;;30.85;32.61;100678.98;110366;1267;22937;-82
2023/08/24 09:55:11;;;;;;;5.10;2.20;;;;;;;31.00;32.32;100676.39;110470;1269;23701;-82
2023/08/24 09:57:58;;;;;;;3.30;1.70;;;;;;;30.96;31.95;100673.44;109914;1271;22244;-81
2023/08/24 10:00:34;;;;;;;8.30;2.40;;;;;;;30.93;32.21;100677.41;109511;1276;21988;-83
2023/08/24 10:03:16;;;;;;;5.40;1.90;;;;;;;30.90;32.20;100673.35;109350;1276;22053;-82
2023/08/24 10:05:54;;;;;;;3.70;1.60;;;;;;;30.92;32.26;100672.80;109474;1275;22013;-81
2023/08/24 10:09:24;;;;;;;5.40;1.50;;;;;;;30.88;31.71;100666.38;109527;1275;21853;-81
2023/08/24 10:12:16;;;;;;;4.30;1.50;;;;;;;30.76;31.90;100660.86;109278;1277;23656;-79
2023/08/24 10:15:11;;;;;;;4.40;1.70;;;;;;;30.72;32.51;100658.56;109763;1272;22235;-82
2023/08/24 10:18:08;;;;;;;7.20;1.80;;;;;;;30.61;31.93;100651.16;110313;1264;21976;-81
2023/08/24 10:20:55;;;;;;;7.80;1.80;;;;;;;30.35;31.86;100644.09;110847;1264;21998;-81
2023/08/24 10:23:56;;;;;;;4.20;1.90;;;;;;;30.01;32.60;100640.86;110635;1264;23634;-84
2023/08/24 10:27:09;;;;;;;7.60;1.90;;;;;;;29.90;33.12;100638.02;109827;1269;22001;-84
2023/08/24 10:29:47;;;;;;;10.30;2.30;;;;;;;29.85;32.95;100632.11;110316;1262;22985;-82
2023/08/24 10:36:21;;;;;;;;;;;;;;;;;;;;;
2023/08/24 10:39:38;;;;;;;3.50;1.50;;;;;;;29.95;32.82;100627.52;109688;1275;21999;-84
2023/08/24 10:42:27;;;;;;;;;;;;;;;;;;;;;
2023/08/24 10:45:08;;;;;;;6.70;1.90;;;;;;;29.94;32.17;100629.79;109811;1271;23641;-83
2023/08/24 10:47:46;;;;;;;5.60;2.10;;;;;;;29.96;32.00;100624.40;109912;1271;21997;-82
2023/08/24 10:50:25;;;;;;;4.90;2.00;;;;;;;29.94;31.82;100618.70;109506;1275;22017;-82
2023/08/24 10:53:43;;;;;;;6.30;1.90;;;;;;;29.91;31.74;100621.75;109528;1274;22026;-81
2023/08/24 10:56:56;;;;;;;4.90;1.50;;;;;;;29.89;31.90;100618.16;109556;1275;21994;-83
2023/08/24 11:00:27;;;;;;;;;;;;;;;;;;;;;
2023/08/24 11:03:11;;;;;;;3.20;1.80;;;;;;;29.73;31.77;100609.30;109493;1274;22911;-84
2023/08/24 11:06:20;;;;;;;6.00;1.70;;;;;;;29.65;31.83;100600.66;109300;1277;23132;-81
2023/08/24 11:09:22;;;;;;;5.80;1.80;;;;;;;29.53;31.74;100598.13;109072;1280;22012;-83
2023/08/24 11:12:18;;;;;;;;;;;;;;;;;;;;;
2023/08/24 11:14:58;;;;;;;3.10;1.60;;;;;;;29.27;32.65;100594.98;109555;1274;21994;-83
2023/08/24 11:17:43;;;;;;;10.60;1.80;;;;;;;29.18;32.90;100595.96;109642;1267;22083;-80
2023/08/24 11:20:15;;;;;;;13.80;2.50;;;;;;;29.12;32.73;100588.44;109500;1266;21982;-80
2023/08/24 11:22:54;;;;;;;7.20;3.50;;;;;;;29.07;33.06;100588.85;109342;1275;22041;-81
2023/08/24 11:25:35;;;;;;;11.40;2.30;;;;;;;29.03;33.12;100591.23;110126;1268;23615;-81
2023/08/24 11:28:27;;;;;;;15.30;2.40;;;;;;;28.97;33.51;100590.66;110546;1264;21995;-87
2023/08/24 11:31:22;;;;;;;7.30;2.10;;;;;;;28.87;33.59;100589.24;110677;1264;21987;-79
2023/08/24 11:34:07;;;;;;;4.40;2.10;;;;;;;28.82;33.63;100588.17;109754;1270;21997;-83
2023/08/24 11:36:59;;;;;;;5.50;2.80;;;;;;;28.73;33.50;100587.23;109726;1270;22017;-79
2023/08/24 11:40:33;;;;;;;2.70;1.80;;;;;;;28.59;33.83;100589.42;109834;1264;23065;-81
2023/08/24 11:44:00;;;;;;;3.10;1.60;;;;;;;28.47;34.40;100582.33;110510;1266;21972;-80
2023/08/24 11:47:33;;;;;;;13.80;3.10;;;;;;;28.36;33.79;100572.78;110529;1266;23574;-80
2023/08/24 11:51:13;;;;;;;5.50;1.80;;;;;;;28.27;34.71;100573.95;109997;1269;21992;-83
2023/08/24 11:54:08;;;;;;;4.00;1.60;;;;;;;28.29;34.67;100569.16;110480;1265;23714;-83
2023/08/24 11:56:58;;;;;;;5.40;1.90;;;;;;;28.29;34.59;100566.40;110272;1264;22009;-80
2023/08/24 11:59:41;;;;;;;3.10;1.70;;;;;;;28.32;34.80;100557.20;109708;1271;21987;-81
2023/08/24 12:02:29;;;;;;;5.10;1.80;;;;;;;28.34;34.57;100553.17;107538;1273;2720658;-79
2023/08/24 12:05:42;;;;;;;5.50;1.90;;;;;;;28.36;34.13;100546.36;109563;1273;24238;-85
2023/08/24 12:08:24;;;;;;;8.40;1.90;;;;;;;28.35;33.99;100543.18;108732;1282;22000;-79
2023/08/24 12:10:55;;;;;;;12.30;2.20;;;;;;;28.40;34.16;100539.77;108825;1280;22014;-81
2023/08/24 12:13:57;;;;;;;11.40;2.50;;;;;;;28.45;34.07;100539.62;108924;1282;22183;-81
2023/08/24 12:16:52;;;;;;;7.80;2.00;;;;;;;28.48;34.27;100540.75;109135;1276;22001;-82
2023/08/24 12:19:42;;;;;;;29.50;4.80;;;;;;;28.48;34.22;100540.42;109503;1275;21988;-81
2023/08/24 12:22:32;;;;;;;4.10;2.10;;;;;;;28.47;34.67;100534.41;109392;1275;24397;-78
2023/08/24 12:25:16;;;;;;;8.30;2.00;;;;;;;28.48;34.23;100529.31;109266;1268;22029;-78
2023/08/24 12:28:27;;;;;;;4.60;1.80;;;;;;;28.46;34.02;100532.54;110057;1269;21998;-78
2023/08/24 12:31:08;;;;;;;5.00;2.10;;;;;;;28.41;33.78;100531.42;110038;1269;22017;-77
2023/08/24 12:33:55;;;;;;;;;;;;;;;;;;;;;
2023/08/24 12:36:42;;;;;;;5.10;1.90;;;;;;;28.38;34.14;100524.05;109828;1270;22831;-78
2023/08/24 12:39:31;;;;;;;5.30;2.30;;;;;;;28.39;34.09;100524.48;109749;1267;21978;-82
2023/08/24 12:42:19;;;;;;;3.00;1.60;;;;;;;28.36;33.98;100520.55;109385;1272;23639;-79
2023/08/24 12:44:57;;;;;;;4.80;2.30;;;;;;;28.33;33.96;100523.21;109192;1274;21993;-79
2023/08/24 12:47:47;;;;;;;7.90;2.20;;;;;;;28.32;33.82;100523.11;108909;1280;22054;-77
2023/08/24 12:50:26;;;;;;;4.00;1.70;;;;;;;28.33;33.87;100519.80;108881;1280;21991;-79